createdAt,value
2018-11-27T00:00:35.146Z,15.00
2018-11-27T00:03:09.564Z,14.90
2018-11-27T00:05:38.761Z,15.00
2018-11-27T00:08:07.958Z,14.90
2018-11-27T00:10:38.410Z,14.90
2018-11-27T00:13:07.213Z,14.90
2018-11-27T00:15:35.967Z,14.90
2018-11-27T00:18:04.866Z,14.90
2018-11-27T00:20:33.635Z,14.90
2018-11-27T00:23:02.442Z,14.90
2018-11-27T00:25:31.332Z,14.90
2018-11-27T00:28:00.108Z,14.90
2018-11-27T00:30:28.803Z,14.90
2018-11-27T00:32:57.696Z,15.00
2018-11-27T00:35:26.591Z,14.90
2018-11-27T00:37:55.359Z,14.90
2018-11-27T00:40:24.559Z,14.90
2018-11-27T00:42:53.468Z,14.90
2018-11-27T00:45:22.261Z,14.90
2018-11-27T00:47:51.635Z,14.90
2018-11-27T00:50:24.535Z,14.90
2018-11-27T00:52:53.340Z,14.80
2018-11-27T00:55:22.230Z,14.80
2018-11-27T00:57:51.943Z,14.80
2018-11-27T01:00:21.520Z,14.90
2018-11-27T01:02:50.438Z,14.80
2018-11-27T01:05:20.338Z,14.80
2018-11-27T01:07:49.146Z,14.90
2018-11-27T01:10:24.487Z,14.90
2018-11-27T01:12:53.428Z,14.90
2018-11-27T01:15:22.271Z,14.90
2018-11-27T01:17:52.137Z,14.90
2018-11-27T01:20:21.592Z,14.90
2018-11-27T01:22:50.380Z,14.80
2018-11-27T01:25:19.152Z,14.90
2018-11-27T01:27:47.961Z,14.90
2018-11-27T01:30:17.745Z,14.80
2018-11-27T01:32:46.650Z,14.80
2018-11-27T01:35:34.621Z,14.90
2018-11-27T01:38:22.664Z,14.90
2018-11-27T01:41:10.808Z,14.80
2018-11-27T01:43:58.950Z,14.80
2018-11-27T01:46:47.093Z,14.80
2018-11-27T01:49:35.240Z,14.90
2018-11-27T01:52:23.278Z,14.90
2018-11-27T01:55:11.933Z,14.80
2018-11-27T01:58:00.282Z,14.80
2018-11-27T02:00:48.224Z,14.80
2018-11-27T02:03:36.159Z,14.80
2018-11-27T02:06:24.307Z,14.80
2018-11-27T02:09:12.342Z,14.80
2018-11-27T02:12:19.659Z,14.80
2018-11-27T02:15:16.994Z,14.80
2018-11-27T02:18:05.037Z,14.80
2018-11-27T02:20:53.182Z,14.80
2018-11-27T02:23:41.220Z,14.80
2018-11-27T02:26:29.160Z,14.80
2018-11-27T02:29:17.100Z,14.80
2018-11-27T02:32:05.242Z,14.70
2018-11-27T02:34:53.589Z,14.70
2018-11-27T02:37:41.627Z,14.80
2018-11-27T02:40:29.675Z,14.70
2018-11-27T02:43:17.607Z,14.80
2018-11-27T02:46:05.647Z,14.70
2018-11-27T02:48:53.793Z,14.70
2018-11-27T02:51:41.826Z,14.80
2018-11-27T02:54:48.868Z,14.70
2018-11-27T02:57:36.961Z,14.70
2018-11-27T03:00:25.411Z,14.70
2018-11-27T03:03:13.556Z,14.70
2018-11-27T03:06:01.609Z,14.80
2018-11-27T03:08:49.741Z,14.80
2018-11-27T03:11:37.883Z,14.80
2018-11-27T03:14:25.923Z,14.80
2018-11-27T03:17:13.965Z,14.70
2018-11-27T03:20:02.110Z,14.70
2018-11-27T03:22:50.268Z,14.80
2018-11-27T03:25:38.192Z,14.70
2018-11-27T03:28:26.334Z,14.70
2018-11-27T03:31:14.382Z,14.70
2018-11-27T03:34:02.519Z,14.80
2018-11-27T03:36:51.479Z,14.70
2018-11-27T03:39:39.623Z,14.70
2018-11-27T03:42:27.767Z,14.70
2018-11-27T03:45:16.117Z,14.70
2018-11-27T03:48:04.257Z,14.70
2018-11-27T03:50:52.399Z,14.70
2018-11-27T03:53:40.573Z,14.70
2018-11-27T03:56:28.587Z,14.70
2018-11-27T03:59:16.730Z,14.70
2018-11-27T04:02:04.666Z,14.70
2018-11-27T04:04:52.707Z,14.70
2018-11-27T04:07:40.856Z,14.70
2018-11-27T04:10:28.793Z,14.70
2018-11-27T04:13:16.829Z,14.70
2018-11-27T04:16:04.874Z,14.70
2018-11-27T04:18:53.017Z,14.70
2018-11-27T04:21:41.159Z,14.70
2018-11-27T04:24:21.813Z,14.70
2018-11-27T04:27:03.171Z,14.60
2018-11-27T04:29:43.982Z,14.70
2018-11-27T04:32:25.272Z,14.70
2018-11-27T04:35:29.011Z,14.60
2018-11-27T04:37:59.511Z,14.60
2018-11-27T04:40:27.515Z,14.60
2018-11-27T04:42:56.611Z,14.60
2018-11-27T04:45:26.617Z,14.60
2018-11-27T04:47:55.724Z,14.60
2018-11-27T04:50:24.974Z,14.60
2018-11-27T04:52:54.110Z,14.70
2018-11-27T04:55:23.331Z,14.70
2018-11-27T04:57:52.947Z,14.70
2018-11-27T05:00:26.099Z,14.60
2018-11-27T05:02:55.474Z,14.60
2018-11-27T05:05:24.945Z,14.60
2018-11-27T05:07:54.235Z,14.70
2018-11-27T05:10:24.223Z,14.70
2018-11-27T05:12:53.390Z,14.70
2018-11-27T05:15:23.889Z,14.60
2018-11-27T05:17:55.018Z,14.60
2018-11-27T05:20:24.228Z,14.70
2018-11-27T05:22:53.472Z,14.60
2018-11-27T05:25:22.645Z,14.60
2018-11-27T05:27:53.988Z,14.60
2018-11-27T05:30:25.990Z,14.60
2018-11-27T05:32:56.169Z,14.60
2018-11-27T05:35:28.408Z,14.70
2018-11-27T05:37:58.023Z,14.60
2018-11-27T05:40:27.239Z,14.60
2018-11-27T05:42:59.409Z,14.60
2018-11-27T05:45:28.600Z,14.60
2018-11-27T05:47:57.699Z,14.60
2018-11-27T05:50:26.800Z,14.60
2018-11-27T05:52:56.005Z,14.60
2018-11-27T05:55:25.301Z,14.60
2018-11-27T05:57:55.317Z,14.60
2018-11-27T06:00:27.138Z,14.60
2018-11-27T06:02:59.552Z,14.60
2018-11-27T06:05:28.890Z,14.60
2018-11-27T06:07:58.094Z,14.60
2018-11-27T06:10:27.286Z,14.60
2018-11-27T06:12:56.247Z,14.60
2018-11-27T06:15:27.930Z,14.60
2018-11-27T06:17:58.353Z,14.60
2018-11-27T06:20:27.638Z,14.60
2018-11-27T06:22:57.064Z,14.60
2018-11-27T06:25:27.353Z,14.50
2018-11-27T06:27:59.393Z,14.50
2018-11-27T06:30:29.326Z,14.60
2018-11-27T06:32:58.997Z,14.50
2018-11-27T06:35:34.148Z,14.50
2018-11-27T06:38:03.909Z,14.60
2018-11-27T06:40:33.395Z,14.50
2018-11-27T06:43:02.613Z,14.60
2018-11-27T06:45:31.878Z,14.50
2018-11-27T06:48:01.362Z,14.60
2018-11-27T06:50:30.694Z,14.50
2018-11-27T06:53:00.209Z,14.60
2018-11-27T06:55:29.535Z,14.60
2018-11-27T06:57:58.872Z,14.60
2018-11-27T07:00:29.027Z,14.60
2018-11-27T07:02:59.225Z,14.60
2018-11-27T07:05:28.569Z,14.50
2018-11-27T07:07:57.776Z,14.50
2018-11-27T07:10:32.402Z,14.50
2018-11-27T07:13:06.201Z,14.50
2018-11-27T07:15:35.473Z,14.50
2018-11-27T07:18:04.959Z,14.50
2018-11-27T07:20:34.194Z,14.50
2018-11-27T07:23:03.422Z,14.50
2018-11-27T07:25:32.915Z,14.50
2018-11-27T07:28:02.156Z,14.50
2018-11-27T07:30:31.460Z,14.60
2018-11-27T07:33:00.752Z,14.60
2018-11-27T07:35:30.061Z,14.60
2018-11-27T07:37:59.254Z,14.50
2018-11-27T07:40:29.117Z,14.50
2018-11-27T07:43:03.761Z,14.50
2018-11-27T07:45:33.354Z,14.50
2018-11-27T07:48:02.611Z,14.50
2018-11-27T07:50:31.893Z,14.60
2018-11-27T07:53:01.152Z,14.50
2018-11-27T07:55:30.308Z,14.50
2018-11-27T07:57:59.421Z,14.50
2018-11-27T08:00:29.020Z,14.50
2018-11-27T08:02:59.362Z,14.50
2018-11-27T08:05:32.895Z,14.40
2018-11-27T08:08:02.312Z,14.50
2018-11-27T08:10:32.295Z,14.50
2018-11-27T08:13:01.663Z,14.50
2018-11-27T08:15:31.532Z,14.50
2018-11-27T08:18:00.923Z,14.50
2018-11-27T08:20:31.344Z,14.50
2018-11-27T08:23:00.681Z,14.50
2018-11-27T08:25:30.062Z,14.50
2018-11-27T08:27:59.294Z,14.50
2018-11-27T08:30:28.386Z,14.50
2018-11-27T08:32:58.122Z,14.50
2018-11-27T08:35:29.412Z,14.50
2018-11-27T08:38:00.037Z,14.50
2018-11-27T08:40:30.439Z,14.50
2018-11-27T08:42:59.775Z,14.50
2018-11-27T08:45:28.832Z,14.50
2018-11-27T08:47:57.977Z,14.50
2018-11-27T08:50:28.776Z,14.50
2018-11-27T08:52:58.928Z,14.50
2018-11-27T08:55:30.313Z,14.50
2018-11-27T08:58:00.097Z,14.50
2018-11-27T09:00:29.610Z,14.50
2018-11-27T09:02:59.071Z,14.50
2018-11-27T09:05:28.471Z,14.50
2018-11-27T09:07:57.862Z,14.50
2018-11-27T09:10:26.970Z,14.50
2018-11-27T09:12:56.185Z,14.40
2018-11-27T09:15:25.475Z,14.50
2018-11-27T09:18:02.495Z,14.50
2018-11-27T09:20:31.858Z,14.50
2018-11-27T09:23:00.965Z,14.50
2018-11-27T09:25:30.091Z,14.50
2018-11-27T09:27:59.610Z,14.50
2018-11-27T09:30:28.951Z,14.50
2018-11-27T09:32:58.876Z,14.50
2018-11-27T09:35:28.128Z,14.40
2018-11-27T09:37:57.427Z,14.50
2018-11-27T09:40:26.775Z,14.50
2018-11-27T09:42:56.379Z,14.50
2018-11-27T09:45:26.035Z,14.40
2018-11-27T09:47:57.191Z,14.50
2018-11-27T09:50:26.498Z,14.50
2018-11-27T09:52:55.559Z,14.50
2018-11-27T09:55:26.928Z,14.50
2018-11-27T09:57:59.197Z,14.50
2018-11-27T10:00:28.619Z,14.50
2018-11-27T10:03:01.095Z,14.50
2018-11-27T10:05:30.538Z,14.50
2018-11-27T10:07:59.938Z,14.50
2018-11-27T10:10:29.007Z,14.50
2018-11-27T10:12:58.597Z,14.50
2018-11-27T10:15:28.584Z,14.50
2018-11-27T10:17:59.905Z,14.40
2018-11-27T10:20:30.560Z,14.40
2018-11-27T10:22:59.756Z,14.40
2018-11-27T10:25:28.948Z,14.50
2018-11-27T10:27:58.094Z,14.50
2018-11-27T10:30:28.075Z,14.50
2018-11-27T10:32:58.327Z,14.40
2018-11-27T10:35:29.903Z,14.50
2018-11-27T10:37:59.112Z,14.50
2018-11-27T10:40:28.279Z,14.50
2018-11-27T10:42:57.520Z,14.50
2018-11-27T10:45:26.836Z,14.50
2018-11-27T10:47:56.852Z,14.50
2018-11-27T10:50:25.964Z,14.40
2018-11-27T10:52:56.542Z,14.50
2018-11-27T10:55:25.973Z,14.40
2018-11-27T10:57:55.236Z,14.50
2018-11-27T11:00:30.335Z,14.40
2018-11-27T11:03:02.723Z,14.50
2018-11-27T11:05:33.035Z,14.50
2018-11-27T11:08:02.535Z,14.40
2018-11-27T11:10:31.698Z,14.50
2018-11-27T11:13:01.232Z,14.50
2018-11-27T11:15:30.476Z,14.50
2018-11-27T11:17:59.972Z,14.50
2018-11-27T11:20:29.650Z,14.50
2018-11-27T11:22:59.056Z,14.40
2018-11-27T11:25:28.559Z,14.50
2018-11-27T11:27:59.450Z,14.50
2018-11-27T11:30:28.761Z,14.50
2018-11-27T11:32:58.311Z,14.50
2018-11-27T11:35:27.678Z,14.40
2018-11-27T11:37:57.218Z,14.50
2018-11-27T11:40:26.735Z,14.50
2018-11-27T11:42:57.836Z,14.50
2018-11-27T11:45:27.279Z,14.40
2018-11-27T11:47:56.637Z,14.50
2018-11-27T11:50:28.497Z,14.50
2018-11-27T11:52:59.848Z,14.50
2018-11-27T11:55:29.162Z,14.50
2018-11-27T11:57:58.592Z,14.50
2018-11-27T12:00:35.282Z,14.40
2018-11-27T12:03:04.331Z,14.50
2018-11-27T12:05:34.036Z,14.40
2018-11-27T12:08:03.375Z,14.50
2018-11-27T12:10:32.679Z,14.50
2018-11-27T12:13:02.053Z,14.50
2018-11-27T12:15:31.153Z,14.50
2018-11-27T12:18:00.352Z,14.50
2018-11-27T12:20:29.541Z,14.50
2018-11-27T12:22:58.739Z,14.50
2018-11-27T12:25:28.226Z,14.50
2018-11-27T12:27:57.574Z,14.50
2018-11-27T12:30:27.426Z,14.50
2018-11-27T12:32:56.779Z,14.50
2018-11-27T12:35:26.264Z,14.50
2018-11-27T12:37:55.416Z,14.50
2018-11-27T12:40:26.477Z,14.50
2018-11-27T12:42:56.364Z,14.60
2018-11-27T12:45:26.653Z,14.60
2018-11-27T12:47:56.476Z,14.50
2018-11-27T12:50:28.810Z,14.50
2018-11-27T12:52:58.273Z,14.60
2018-11-27T12:55:27.659Z,14.50
2018-11-27T12:57:56.866Z,14.60
2018-11-27T13:00:26.402Z,14.50
2018-11-27T13:02:55.748Z,14.50
2018-11-27T13:05:26.284Z,14.50
2018-11-27T13:07:58.429Z,14.60
2018-11-27T13:10:27.898Z,14.50
2018-11-27T13:12:57.248Z,14.60
2018-11-27T13:15:26.804Z,14.60
2018-11-27T13:17:56.174Z,14.50
2018-11-27T13:20:25.468Z,14.60
2018-11-27T13:22:54.807Z,14.50
2018-11-27T13:25:25.084Z,14.60
2018-11-27T13:27:56.041Z,14.50
2018-11-27T13:30:42.949Z,14.50
2018-11-27T13:33:19.561Z,14.50
2018-11-27T13:35:48.769Z,14.50
2018-11-27T13:38:17.866Z,14.50
2018-11-27T13:40:47.012Z,14.50
2018-11-27T13:43:26.866Z,14.50
2018-11-27T13:45:57.187Z,14.50
2018-11-27T13:48:26.372Z,14.50
2018-11-27T13:50:55.576Z,14.60
2018-11-27T13:53:24.703Z,14.50
2018-11-27T13:55:53.965Z,14.50
2018-11-27T13:58:23.177Z,14.60
2018-11-27T14:00:52.945Z,14.60
2018-11-27T14:03:22.358Z,14.50
2018-11-27T14:05:51.613Z,14.50
2018-11-27T14:08:20.860Z,14.50
2018-11-27T14:10:50.076Z,14.60
2018-11-27T14:13:19.267Z,14.50
2018-11-27T14:15:48.512Z,14.40
2018-11-27T14:18:17.775Z,14.50
2018-11-27T14:20:47.169Z,14.50
2018-11-27T14:23:16.316Z,14.50
2018-11-27T14:25:45.768Z,14.50
2018-11-27T14:28:15.213Z,14.50
2018-11-27T14:30:44.569Z,14.50
2018-11-27T14:33:13.853Z,14.60
2018-11-27T14:35:43.170Z,14.50
2018-11-27T14:38:12.442Z,14.50
2018-11-27T14:40:41.633Z,14.50
2018-11-27T14:43:10.862Z,14.50
2018-11-27T14:45:40.081Z,14.50
2018-11-27T14:48:09.393Z,14.50
2018-11-27T14:50:38.560Z,14.40
2018-11-27T14:53:07.787Z,14.50
2018-11-27T14:55:37.082Z,14.50
2018-11-27T14:58:06.631Z,14.40
2018-11-27T15:00:36.286Z,14.40
2018-11-27T15:03:05.751Z,14.50
2018-11-27T15:05:38.120Z,14.40
2018-11-27T15:08:12.580Z,14.40
2018-11-27T15:10:41.773Z,14.50
2018-11-27T15:13:11.989Z,14.50
2018-11-27T15:15:41.177Z,14.50
2018-11-27T15:18:10.370Z,14.50
2018-11-27T15:20:39.561Z,14.40
2018-11-27T15:23:08.656Z,14.40
2018-11-27T15:25:38.079Z,14.40
2018-11-27T15:28:07.380Z,14.40
2018-11-27T15:30:37.711Z,14.40
2018-11-27T15:33:07.546Z,14.40
2018-11-27T15:35:37.729Z,14.40
2018-11-27T15:38:07.571Z,14.40
2018-11-27T15:40:37.476Z,14.40
2018-11-27T15:43:06.446Z,14.50
2018-11-27T15:45:36.086Z,14.40
2018-11-27T15:48:07.241Z,14.40
2018-11-27T15:50:36.507Z,14.30
2018-11-27T15:53:06.108Z,14.40
2018-11-27T15:55:36.674Z,14.40
2018-11-27T15:58:13.441Z,14.40
2018-11-27T16:00:43.363Z,14.40
2018-11-27T16:03:12.739Z,14.40
2018-11-27T16:05:46.268Z,14.30
2018-11-27T16:08:15.785Z,14.30
2018-11-27T16:10:44.947Z,14.30
2018-11-27T16:13:14.146Z,14.30
2018-11-27T16:15:43.401Z,14.40
2018-11-27T16:18:12.557Z,14.40
2018-11-27T16:20:41.737Z,14.40
2018-11-27T16:23:11.054Z,14.40
2018-11-27T16:25:40.363Z,14.40
2018-11-27T16:28:09.511Z,14.40
2018-11-27T16:30:38.740Z,14.40
2018-11-27T16:33:08.360Z,14.40
2018-11-27T16:35:37.884Z,14.30
2018-11-27T16:38:07.464Z,14.30
2018-11-27T16:40:37.970Z,14.30
2018-11-27T16:43:07.255Z,14.40
2018-11-27T16:45:36.446Z,14.30
2018-11-27T16:48:06.527Z,14.30
2018-11-27T16:50:35.933Z,14.30
2018-11-27T16:53:05.165Z,14.30
2018-11-27T16:55:34.740Z,14.30
2018-11-27T16:58:04.015Z,14.30
2018-11-27T17:00:34.209Z,14.30
2018-11-27T17:03:04.422Z,14.30
2018-11-27T17:05:39.762Z,14.30
2018-11-27T17:08:09.097Z,14.30
2018-11-27T17:10:39.057Z,14.20
2018-11-27T17:13:09.393Z,14.30
2018-11-27T17:15:39.084Z,14.30
2018-11-27T17:18:08.936Z,14.20
2018-11-27T17:20:39.588Z,14.30
2018-11-27T17:23:10.292Z,14.30
2018-11-27T17:25:39.644Z,14.20
2018-11-27T17:28:17.493Z,14.20
2018-11-27T17:31:08.484Z,14.20
2018-11-27T17:33:42.389Z,14.20
2018-11-27T17:36:11.691Z,14.20
2018-11-27T17:38:40.978Z,14.20
2018-11-27T17:41:10.717Z,14.30
2018-11-27T17:43:40.418Z,14.30
2018-11-27T17:46:09.604Z,14.20
2018-11-27T17:48:38.840Z,14.20
2018-11-27T17:51:08.568Z,14.20
2018-11-27T17:53:37.724Z,14.20
2018-11-27T17:56:06.989Z,14.10
2018-11-27T17:58:38.693Z,14.20
2018-11-27T18:01:08.023Z,14.20
2018-11-27T18:03:37.171Z,14.30
2018-11-27T18:06:06.557Z,14.20
2018-11-27T18:08:35.852Z,14.20
2018-11-27T18:11:05.318Z,14.20
2018-11-27T18:13:35.205Z,14.20
2018-11-27T18:16:04.513Z,14.20
2018-11-27T18:18:33.731Z,14.20
2018-11-27T18:21:02.801Z,14.20
2018-11-27T18:23:32.081Z,14.20
2018-11-27T18:26:01.552Z,14.20
2018-11-27T18:28:30.697Z,14.20
2018-11-27T18:31:00.001Z,14.20
2018-11-27T18:33:29.231Z,14.20
2018-11-27T18:35:58.563Z,14.20
2018-11-27T18:38:28.049Z,14.10
2018-11-27T18:40:57.509Z,14.20
2018-11-27T18:43:26.622Z,14.20
2018-11-27T18:45:56.274Z,14.10
2018-11-27T18:48:25.985Z,14.20
2018-11-27T18:50:55.434Z,14.10
2018-11-27T18:53:24.791Z,14.20
2018-11-27T18:55:54.332Z,14.10
2018-11-27T18:58:23.776Z,14.10
2018-11-27T19:00:53.248Z,14.10
2018-11-27T19:03:22.525Z,14.20
2018-11-27T19:05:51.950Z,14.20
2018-11-27T19:08:21.337Z,14.10
2018-11-27T19:10:50.577Z,14.20
2018-11-27T19:13:20.005Z,14.10
2018-11-27T19:15:49.585Z,14.10
2018-11-27T19:18:22.065Z,14.10
2018-11-27T19:20:51.292Z,14.10
2018-11-27T19:23:24.658Z,14.10
2018-11-27T19:25:54.063Z,14.10
2018-11-27T19:28:23.404Z,14.20
2018-11-27T19:30:52.928Z,14.10
2018-11-27T19:33:22.326Z,14.10
2018-11-27T19:35:51.413Z,14.10
2018-11-27T19:38:21.737Z,14.10
2018-11-27T19:40:51.029Z,14.20
2018-11-27T19:43:20.569Z,14.10
2018-11-27T19:45:49.952Z,14.10
2018-11-27T19:48:19.094Z,14.10
2018-11-27T19:50:48.716Z,14.20
2018-11-27T19:53:18.320Z,14.10
2018-11-27T19:55:47.538Z,14.10
2018-11-27T19:58:16.645Z,14.10
2018-11-27T20:00:46.130Z,14.10
2018-11-27T20:03:15.408Z,14.10
2018-11-27T20:05:44.577Z,14.10
2018-11-27T20:08:16.238Z,14.10
2018-11-27T20:10:45.613Z,14.10
2018-11-27T20:13:14.653Z,14.10
2018-11-27T20:15:43.998Z,14.10
2018-11-27T20:18:13.181Z,14.10
2018-11-27T20:20:42.389Z,14.10
2018-11-27T20:23:11.866Z,14.10
2018-11-27T20:25:40.973Z,14.10
2018-11-27T20:28:10.520Z,14.00
2018-11-27T20:30:40.837Z,14.00
2018-11-27T20:33:10.054Z,14.00
2018-11-27T20:35:39.444Z,14.10
2018-11-27T20:38:09.945Z,14.10
2018-11-27T20:40:39.717Z,14.10
2018-11-27T20:43:08.936Z,14.10
2018-11-27T20:45:38.212Z,14.00
2018-11-27T20:48:15.500Z,14.00
2018-11-27T20:50:47.419Z,14.00
2018-11-27T20:53:17.031Z,14.00
2018-11-27T20:55:46.324Z,14.00
2018-11-27T20:58:15.657Z,14.10
2018-11-27T21:00:46.172Z,14.00
2018-11-27T21:03:15.231Z,14.00
2018-11-27T21:05:44.523Z,14.10
2018-11-27T21:08:13.766Z,14.00
2018-11-27T21:10:42.911Z,14.00
2018-11-27T21:13:12.609Z,14.00
2018-11-27T21:15:42.809Z,14.00
2018-11-27T21:18:13.153Z,14.00
2018-11-27T21:20:43.084Z,14.00
2018-11-27T21:23:12.339Z,13.90
2018-11-27T21:25:41.553Z,14.00
2018-11-27T21:28:17.062Z,14.00
2018-11-27T21:30:47.586Z,13.90
2018-11-27T21:33:16.901Z,14.00
2018-11-27T21:35:46.201Z,14.00
2018-11-27T21:38:15.607Z,14.00
2018-11-27T21:40:44.831Z,14.00
2018-11-27T21:43:14.150Z,14.00
2018-11-27T21:45:43.275Z,14.00
2018-11-27T21:48:12.833Z,14.00
2018-11-27T21:50:42.993Z,14.00
2018-11-27T21:53:12.167Z,14.00
2018-11-27T21:55:42.385Z,14.00
2018-11-27T21:58:11.665Z,13.90
2018-11-27T22:00:41.957Z,14.00
2018-11-27T22:03:12.525Z,13.90
2018-11-27T22:05:41.578Z,14.00
2018-11-27T22:08:10.682Z,14.00
2018-11-27T22:10:40.178Z,13.90
2018-11-27T22:13:12.703Z,14.00
2018-11-27T22:15:42.886Z,13.90
2018-11-27T22:18:12.816Z,14.00
2018-11-27T22:20:42.053Z,14.00
2018-11-27T22:23:11.358Z,13.90
2018-11-27T22:25:40.814Z,14.00
2018-11-27T22:28:10.244Z,13.90
2018-11-27T22:30:39.422Z,13.90
2018-11-27T22:33:09.241Z,13.90
2018-11-27T22:35:38.434Z,14.00
2018-11-27T22:38:08.363Z,14.00
2018-11-27T22:40:37.747Z,13.90
2018-11-27T22:43:07.824Z,14.00
2018-11-27T22:45:40.748Z,13.90
2018-11-27T22:48:12.125Z,14.00
2018-11-27T22:50:40.443Z,14.00
2018-11-27T22:53:10.323Z,13.90
2018-11-27T22:55:39.413Z,14.00
2018-11-27T22:58:09.007Z,13.90
2018-11-27T23:00:43.641Z,13.90
2018-11-27T23:03:12.884Z,13.90
2018-11-27T23:05:42.178Z,13.90
2018-11-27T23:08:11.390Z,13.90
2018-11-27T23:10:41.849Z,13.90
2018-11-27T23:13:11.004Z,13.90
2018-11-27T23:15:40.098Z,13.90
2018-11-27T23:18:09.308Z,13.90
2018-11-27T23:20:38.677Z,13.90
2018-11-27T23:23:07.816Z,13.90
2018-11-27T23:25:36.979Z,13.90
2018-11-27T23:28:06.088Z,13.90
2018-11-27T23:30:35.309Z,13.90
2018-11-27T23:33:04.497Z,13.90
2018-11-27T23:35:33.666Z,13.90
2018-11-27T23:38:03.157Z,13.90
2018-11-27T23:40:32.466Z,13.90
2018-11-27T23:43:01.886Z,13.90
2018-11-27T23:45:31.173Z,13.90
2018-11-27T23:48:00.241Z,13.90
2018-11-27T23:50:29.440Z,13.90
2018-11-27T23:52:58.705Z,13.90
2018-11-27T23:55:27.873Z,13.90
2018-11-27T23:57:56.957Z,13.80
